createdAt,value
2018-04-30T00:00:19.856Z,17.94
2018-04-30T00:02:47.379Z,17.94
2018-04-30T00:05:15.150Z,17.97
2018-04-30T00:07:42.664Z,17.96
2018-04-30T00:10:10.193Z,17.94
2018-04-30T00:12:37.832Z,17.95
2018-04-30T00:15:05.376Z,17.94
2018-04-30T00:17:32.916Z,17.98
2018-04-30T00:20:00.435Z,17.96
2018-04-30T00:22:27.962Z,17.87
2018-04-30T00:24:55.492Z,17.90
2018-04-30T00:27:23.022Z,17.91
2018-04-30T00:29:50.544Z,17.94
2018-04-30T00:32:18.077Z,17.85
2018-04-30T00:34:45.590Z,17.89
2018-04-30T00:37:13.225Z,17.88
2018-04-30T00:39:40.748Z,17.88
2018-04-30T00:42:08.347Z,17.80
2018-04-30T00:44:35.864Z,17.80
2018-04-30T00:47:03.393Z,17.79
2018-04-30T00:49:31.027Z,17.78
2018-04-30T00:51:58.551Z,17.77
2018-04-30T00:54:37.758Z,17.74
2018-04-30T00:57:05.295Z,17.74
2018-04-30T00:59:32.937Z,17.73
2018-04-30T01:02:00.465Z,17.72
2018-04-30T01:04:27.980Z,17.68
2018-04-30T01:06:55.614Z,17.66
2018-04-30T01:09:23.136Z,17.69
2018-04-30T01:11:50.668Z,17.68
2018-04-30T01:14:18.298Z,17.67
2018-04-30T01:16:45.827Z,17.65
2018-04-30T01:19:13.384Z,17.62
2018-04-30T01:21:40.900Z,17.62
2018-04-30T01:24:08.463Z,17.65
2018-04-30T01:26:36.010Z,17.55
2018-04-30T01:29:03.541Z,17.57
2018-04-30T01:31:31.068Z,17.51
2018-04-30T01:33:58.591Z,17.51
2018-04-30T01:36:26.104Z,17.47
2018-04-30T01:38:53.647Z,17.47
2018-04-30T01:41:21.239Z,17.51
2018-04-30T01:43:48.774Z,17.55
2018-04-30T01:46:16.302Z,17.45
2018-04-30T01:48:43.826Z,17.44
2018-04-30T01:51:11.490Z,17.32
2018-04-30T01:53:39.013Z,17.33
2018-04-30T01:56:06.547Z,17.32
2018-04-30T01:58:34.081Z,17.35
2018-04-30T02:01:01.604Z,17.36
2018-04-30T02:03:29.195Z,17.33
2018-04-30T02:05:56.755Z,17.28
2018-04-30T02:08:24.281Z,17.36
2018-04-30T02:10:51.802Z,17.37
2018-04-30T02:13:19.326Z,17.26
2018-04-30T02:15:46.857Z,17.19
2018-04-30T02:18:14.384Z,17.22
2018-04-30T02:20:41.907Z,17.13
2018-04-30T02:23:09.434Z,17.12
2018-04-30T02:25:37.026Z,17.09
2018-04-30T02:28:04.540Z,17.04
2018-04-30T02:30:32.148Z,17.10
2018-04-30T02:32:59.675Z,17.14
2018-04-30T02:35:27.193Z,17.01
2018-04-30T02:37:54.727Z,17.05
2018-04-30T02:40:22.248Z,16.96
2018-04-30T02:42:49.788Z,16.93
2018-04-30T02:45:17.324Z,16.82
2018-04-30T02:47:44.959Z,16.87
2018-04-30T02:50:12.485Z,16.86
2018-04-30T02:52:40.009Z,16.86
2018-04-30T02:55:07.527Z,16.77
2018-04-30T02:57:35.036Z,16.66
2018-04-30T03:00:02.562Z,16.69
2018-04-30T03:02:30.090Z,16.66
2018-04-30T03:04:57.664Z,16.62
2018-04-30T03:07:25.188Z,16.63
2018-04-30T03:09:52.804Z,16.56
2018-04-30T03:12:20.260Z,16.51
2018-04-30T03:14:47.840Z,16.57
2018-04-30T03:17:15.381Z,16.59
2018-04-30T03:19:42.903Z,16.46
2018-04-30T03:22:10.437Z,16.46
2018-04-30T03:24:37.963Z,16.46
2018-04-30T03:27:05.492Z,16.47
2018-04-30T03:29:33.075Z,16.30
2018-04-30T03:32:00.635Z,16.23
2018-04-30T03:34:28.176Z,16.24
2018-04-30T03:36:55.708Z,16.26
2018-04-30T03:39:23.239Z,16.26
2018-04-30T03:41:50.773Z,16.21
2018-04-30T03:44:18.295Z,16.18
2018-04-30T03:46:45.894Z,16.10
2018-04-30T03:49:13.427Z,16.19
2018-04-30T03:51:40.958Z,16.14
2018-04-30T03:54:08.492Z,16.15
2018-04-30T03:56:36.024Z,16.04
2018-04-30T03:59:03.555Z,16.07
2018-04-30T04:01:42.929Z,16.10
2018-04-30T04:07:14.965Z,16.02
2018-04-30T04:09:42.570Z,16.06
2018-04-30T04:12:10.097Z,15.90
2018-04-30T04:14:37.711Z,15.84
2018-04-30T04:17:05.184Z,15.84
2018-04-30T04:19:32.711Z,15.85
2018-04-30T04:22:00.241Z,15.87
2018-04-30T04:24:27.766Z,15.86
2018-04-30T04:26:55.290Z,15.78
2018-04-30T04:29:22.811Z,15.71
2018-04-30T04:31:50.335Z,15.76
2018-04-30T04:34:17.964Z,15.77
2018-04-30T04:36:45.495Z,15.71
2018-04-30T04:39:13.021Z,15.67
2018-04-30T04:41:40.720Z,15.78
2018-04-30T04:44:08.196Z,15.86
2018-04-30T04:46:35.719Z,15.83
2018-04-30T04:49:03.332Z,15.95
2018-04-30T04:51:30.842Z,15.85
2018-04-30T04:53:58.372Z,15.84
2018-04-30T04:56:25.949Z,16.01
2018-04-30T04:58:53.469Z,15.93
2018-04-30T05:01:20.991Z,15.98
2018-04-30T05:03:48.586Z,15.96
2018-04-30T05:06:16.112Z,16.07
2018-04-30T05:08:43.633Z,16.11
2018-04-30T05:11:11.170Z,16.24
2018-04-30T05:13:38.688Z,16.24
2018-04-30T05:16:06.303Z,16.30
2018-04-30T05:18:33.817Z,16.35
2018-04-30T05:21:01.360Z,16.35
2018-04-30T05:23:28.900Z,16.44
2018-04-30T05:25:56.455Z,16.39
2018-04-30T05:28:24.080Z,16.56
2018-04-30T05:30:51.640Z,16.68
2018-04-30T05:33:19.199Z,16.66
2018-04-30T05:35:46.733Z,16.72
2018-04-30T05:38:14.324Z,16.68
2018-04-30T05:40:41.884Z,16.79
2018-04-30T05:43:09.444Z,16.76
2018-04-30T05:45:36.973Z,16.89
2018-04-30T05:48:04.556Z,16.83
2018-04-30T05:50:32.049Z,16.87
2018-04-30T05:52:59.571Z,16.90
2018-04-30T05:55:27.143Z,17.18
2018-04-30T05:57:54.667Z,17.03
2018-04-30T06:00:22.201Z,16.94
2018-04-30T06:02:49.720Z,16.98
2018-04-30T06:05:17.235Z,17.01
2018-04-30T06:07:44.835Z,17.21
2018-04-30T06:10:12.367Z,17.42
2018-04-30T06:12:39.960Z,17.56
2018-04-30T06:15:07.571Z,17.56
2018-04-30T06:17:35.111Z,17.82
2018-04-30T06:20:02.582Z,18.02
2018-04-30T06:22:30.140Z,18.18
2018-04-30T06:24:57.660Z,18.20
2018-04-30T06:27:25.203Z,18.49
2018-04-30T06:29:52.716Z,18.38
2018-04-30T06:32:20.277Z,18.71
2018-04-30T06:34:47.796Z,18.90
2018-04-30T06:37:15.324Z,19.41
2018-04-30T06:39:42.849Z,19.25
2018-04-30T06:42:10.373Z,19.89
2018-04-30T06:44:37.889Z,19.73
2018-04-30T06:47:05.416Z,19.67
2018-04-30T06:49:32.952Z,20.16
2018-04-30T06:52:00.499Z,20.25
2018-04-30T06:54:28.016Z,20.21
2018-04-30T06:56:55.625Z,20.19
2018-04-30T06:59:23.153Z,20.53
2018-04-30T07:01:50.671Z,21.18
2018-04-30T07:04:18.311Z,21.74
2018-04-30T07:06:45.842Z,21.21
2018-04-30T07:09:13.406Z,21.89
2018-04-30T07:11:40.922Z,21.54
2018-04-30T07:14:08.446Z,21.14
2018-04-30T07:16:35.977Z,21.56
2018-04-30T07:19:03.496Z,21.70
2018-04-30T07:21:31.013Z,21.42
2018-04-30T07:23:58.541Z,21.77
2018-04-30T07:26:26.056Z,21.91
2018-04-30T07:28:53.586Z,22.16
2018-04-30T07:31:21.121Z,22.06
2018-04-30T07:33:48.663Z,22.40
2018-04-30T07:36:16.207Z,22.23
2018-04-30T07:38:43.728Z,22.95
2018-04-30T07:41:11.297Z,23.05
2018-04-30T07:43:38.861Z,23.14
2018-04-30T07:46:06.390Z,22.81
2018-04-30T07:48:33.912Z,23.04
2018-04-30T07:51:01.427Z,23.50
2018-04-30T07:53:28.999Z,23.82
2018-04-30T07:55:56.588Z,24.09
2018-04-30T07:58:24.121Z,24.37
2018-04-30T08:00:51.679Z,24.44
2018-04-30T08:03:19.204Z,24.65
2018-04-30T08:05:46.725Z,24.38
2018-04-30T08:08:14.359Z,25.26
2018-04-30T08:10:41.905Z,25.71
2018-04-30T08:13:09.416Z,26.01
2018-04-30T08:15:36.955Z,25.69
2018-04-30T08:18:04.496Z,25.75
2018-04-30T08:20:32.019Z,25.96
2018-04-30T08:22:59.552Z,27.19
2018-04-30T08:25:27.077Z,27.62
2018-04-30T08:27:54.616Z,27.95
2018-04-30T08:30:22.135Z,28.11
2018-04-30T08:32:49.724Z,29.03
2018-04-30T08:35:17.300Z,28.37
2018-04-30T08:37:44.824Z,28.54
2018-04-30T08:40:12.355Z,29.37
2018-04-30T08:42:39.988Z,29.52
2018-04-30T08:45:07.557Z,29.92
2018-04-30T08:47:35.073Z,29.25
2018-04-30T08:50:02.596Z,30.49
2018-04-30T08:52:30.118Z,30.97
2018-04-30T08:54:57.647Z,30.48
2018-04-30T08:57:25.172Z,31.63
2018-04-30T08:59:52.697Z,31.17
2018-04-30T09:02:20.221Z,31.99
2018-04-30T09:04:47.747Z,32.75
2018-04-30T09:07:15.267Z,34.13
2018-04-30T09:09:42.926Z,33.25
2018-04-30T09:12:10.397Z,33.24
2018-04-30T09:14:37.919Z,33.60
2018-04-30T09:17:05.445Z,33.41
2018-04-30T09:19:32.963Z,33.58
2018-04-30T09:22:00.477Z,35.36
2018-04-30T09:24:27.987Z,34.49
2018-04-30T09:26:55.504Z,35.26
2018-04-30T09:29:23.020Z,34.94
2018-04-30T09:31:50.544Z,35.07
2018-04-30T09:34:18.067Z,35.36
2018-04-30T09:36:45.627Z,35.16
2018-04-30T09:39:13.159Z,36.64
2018-04-30T09:41:40.731Z,38.03
2018-04-30T09:44:08.242Z,36.14
2018-04-30T09:46:35.764Z,34.87
2018-04-30T09:49:03.334Z,34.80
2018-04-30T09:51:30.848Z,36.59
2018-04-30T09:53:58.381Z,34.78
2018-04-30T09:56:25.902Z,36.80
2018-04-30T09:58:53.428Z,35.54
2018-04-30T10:01:20.938Z,35.82
2018-04-30T10:03:48.476Z,33.52
2018-04-30T10:06:15.996Z,34.60
2018-04-30T10:08:43.528Z,33.57
2018-04-30T10:11:11.054Z,32.49
2018-04-30T10:13:38.582Z,30.81
2018-04-30T10:16:06.115Z,31.53
2018-04-30T10:18:33.633Z,29.09
2018-04-30T10:21:01.147Z,29.83
2018-04-30T10:23:28.719Z,28.55
2018-04-30T10:25:56.235Z,28.19
2018-04-30T10:28:23.767Z,27.53
2018-04-30T10:30:51.403Z,26.26
2018-04-30T10:33:18.923Z,26.67
2018-04-30T10:35:46.520Z,26.21
2018-04-30T10:38:14.032Z,25.38
2018-04-30T10:40:41.569Z,25.28
2018-04-30T10:43:09.084Z,24.73
2018-04-30T10:45:36.594Z,25.10
2018-04-30T10:48:04.631Z,25.42
2018-04-30T10:50:32.147Z,25.92
2018-04-30T10:52:59.684Z,25.54
2018-04-30T10:55:27.211Z,25.55
2018-04-30T10:57:54.735Z,25.31
2018-04-30T11:00:22.330Z,24.93
2018-04-30T11:02:49.856Z,24.39
2018-04-30T11:05:17.379Z,24.72
2018-04-30T11:07:44.891Z,24.03
2018-04-30T11:10:12.409Z,23.93
2018-04-30T11:12:39.937Z,23.95
2018-04-30T11:15:07.448Z,23.32
2018-04-30T11:17:34.968Z,23.06
2018-04-30T11:20:02.484Z,23.01
2018-04-30T11:22:29.987Z,23.35
2018-04-30T11:24:57.520Z,23.11
2018-04-30T11:27:25.049Z,22.80
2018-04-30T11:29:52.565Z,22.80
2018-04-30T11:32:20.099Z,22.97
2018-04-30T11:34:47.625Z,22.77
2018-04-30T11:37:15.219Z,23.27
2018-04-30T11:39:42.748Z,22.93
2018-04-30T11:42:10.291Z,23.20
2018-04-30T11:44:37.898Z,23.21
2018-04-30T11:47:05.496Z,23.30
2018-04-30T11:49:32.959Z,22.97
2018-04-30T11:52:00.580Z,22.94
2018-04-30T13:10:25.183Z,22.00
2018-04-30T13:12:52.724Z,22.10
2018-04-30T13:15:20.286Z,22.03
2018-04-30T13:17:47.904Z,21.97
2018-04-30T13:20:15.435Z,22.08
2018-04-30T13:22:42.951Z,22.16
2018-04-30T13:25:10.475Z,22.30
2018-04-30T13:27:37.997Z,22.37
2018-04-30T13:30:05.519Z,22.47
2018-04-30T13:32:33.130Z,22.48
2018-04-30T13:35:00.648Z,22.36
2018-04-30T13:37:28.245Z,22.22
2018-04-30T13:39:55.762Z,22.23
2018-04-30T13:42:23.295Z,22.23
2018-04-30T13:44:50.808Z,22.19
2018-04-30T13:47:18.420Z,22.41
2018-04-30T13:49:46.051Z,22.22
2018-04-30T13:52:13.592Z,22.23
2018-04-30T13:54:41.257Z,22.35
2018-04-30T13:57:09.757Z,22.22
2018-04-30T13:59:37.417Z,22.28
2018-04-30T14:02:04.947Z,22.33
2018-04-30T14:04:32.533Z,22.14
2018-04-30T14:07:00.093Z,22.30
2018-04-30T14:09:27.619Z,22.31
2018-04-30T14:11:55.145Z,21.94
2018-04-30T14:14:22.778Z,22.14
2018-04-30T14:16:50.293Z,22.08
2018-04-30T14:19:17.823Z,21.92
2018-04-30T14:21:45.338Z,22.04
2018-04-30T14:24:12.884Z,22.02
2018-04-30T14:26:40.411Z,21.95
2018-04-30T14:29:07.934Z,21.90
2018-04-30T14:31:35.557Z,21.91
2018-04-30T14:34:03.155Z,21.71
2018-04-30T14:36:30.679Z,21.79
2018-04-30T14:38:58.230Z,21.81
2018-04-30T14:41:25.755Z,21.58
2018-04-30T14:43:53.258Z,21.70
2018-04-30T14:46:20.853Z,21.52
2018-04-30T14:48:49.467Z,21.30
2018-04-30T14:51:17.159Z,21.19
2018-04-30T14:53:44.658Z,21.10
2018-04-30T14:56:12.171Z,21.12
2018-04-30T14:58:39.705Z,21.34
2018-04-30T15:01:07.338Z,21.36
2018-04-30T15:03:34.895Z,21.06
2018-04-30T15:06:02.408Z,20.97
2018-04-30T15:08:29.948Z,20.99
2018-04-30T15:10:57.479Z,20.83
2018-04-30T15:13:25.064Z,20.73
2018-04-30T15:15:52.579Z,20.75
2018-04-30T15:18:20.170Z,20.80
2018-04-30T15:20:47.672Z,20.78
2018-04-30T15:23:15.232Z,20.68
2018-04-30T15:25:42.769Z,20.85
2018-04-30T15:28:10.513Z,20.80
2018-04-30T15:30:37.954Z,20.80
2018-04-30T15:33:05.468Z,20.86
2018-04-30T15:35:32.996Z,20.79
2018-04-30T15:38:00.533Z,20.80
2018-04-30T15:40:28.096Z,20.83
2018-04-30T15:42:55.611Z,20.87
2018-04-30T15:45:23.138Z,20.67
2018-04-30T15:47:50.660Z,20.63
2018-04-30T15:50:18.180Z,20.61
2018-04-30T15:52:45.696Z,20.54
2018-04-30T15:55:13.204Z,20.47
2018-04-30T15:57:40.724Z,20.46
2018-04-30T16:00:08.268Z,20.43
2018-04-30T16:02:35.798Z,20.41
2018-04-30T16:05:03.321Z,20.46
2018-04-30T16:07:30.831Z,20.47
2018-04-30T16:09:58.346Z,20.42
2018-04-30T16:12:25.963Z,20.47
2018-04-30T16:14:53.479Z,20.45
2018-04-30T16:17:21.045Z,20.41
2018-04-30T16:19:48.651Z,20.43
2018-04-30T16:22:16.188Z,20.29
2018-04-30T16:24:43.773Z,20.29
2018-04-30T16:27:11.287Z,20.26
2018-04-30T16:29:38.894Z,20.27
2018-04-30T16:32:06.405Z,20.22
2018-04-30T16:34:34.008Z,20.07
2018-04-30T16:37:01.569Z,20.03
2018-04-30T16:39:29.142Z,20.07
2018-04-30T16:41:56.652Z,20.03
2018-04-30T16:44:24.170Z,19.95
2018-04-30T16:46:51.678Z,19.91
2018-04-30T16:49:19.278Z,20.00
2018-04-30T16:51:46.792Z,19.93
2018-04-30T16:54:14.351Z,19.89
2018-04-30T16:56:41.867Z,19.92
2018-04-30T16:59:09.372Z,19.85
2018-04-30T17:01:36.899Z,19.77
2018-04-30T17:04:04.524Z,19.67
2018-04-30T17:06:32.057Z,19.73
2018-04-30T17:08:59.579Z,19.64
2018-04-30T17:11:27.091Z,19.62
2018-04-30T17:13:54.605Z,19.57
2018-04-30T17:16:22.120Z,19.52
2018-04-30T17:18:49.650Z,19.51
2018-04-30T17:21:17.178Z,19.51
2018-04-30T17:23:44.731Z,19.47
2018-04-30T17:26:12.267Z,19.45
2018-04-30T17:28:39.849Z,19.41
2018-04-30T17:31:07.394Z,19.36
2018-04-30T17:33:34.903Z,19.32
2018-04-30T17:36:02.429Z,19.27
2018-04-30T17:38:29.963Z,19.28
2018-04-30T17:40:57.563Z,19.33
2018-04-30T17:43:25.039Z,19.28
2018-04-30T17:45:52.564Z,19.27
2018-04-30T17:48:20.089Z,19.24
2018-04-30T17:50:47.657Z,19.23
2018-04-30T17:53:15.169Z,19.21
2018-04-30T17:55:42.694Z,19.13
2018-04-30T17:58:10.211Z,19.18
2018-04-30T18:00:37.741Z,19.10
2018-04-30T18:03:05.275Z,19.07
2018-04-30T18:05:32.794Z,19.06
2018-04-30T18:08:00.307Z,19.02
2018-04-30T18:10:27.831Z,19.03
2018-04-30T18:12:55.354Z,18.97
2018-04-30T18:15:22.869Z,18.99
2018-04-30T18:17:50.388Z,18.93
2018-04-30T18:20:17.980Z,18.91
2018-04-30T18:22:45.495Z,18.88
2018-04-30T18:25:13.011Z,18.83
2018-04-30T18:27:40.526Z,18.80
2018-04-30T18:30:08.053Z,18.77
2018-04-30T18:32:35.640Z,18.75
2018-04-30T18:35:03.224Z,18.64
2018-04-30T18:37:30.807Z,18.61
2018-04-30T18:39:58.327Z,18.58
2018-04-30T18:42:25.855Z,18.55
2018-04-30T18:44:53.393Z,18.48
2018-04-30T18:47:20.922Z,18.46
2018-04-30T18:49:48.443Z,18.39
2018-04-30T18:52:15.969Z,18.31
2018-04-30T18:54:43.501Z,18.27
2018-04-30T18:57:11.019Z,18.21
2018-04-30T18:59:38.539Z,18.15
2018-04-30T19:02:06.073Z,18.09
2018-04-30T19:04:33.616Z,18.02
2018-04-30T19:07:01.157Z,17.93
2018-04-30T19:09:28.677Z,17.88
2018-04-30T19:11:56.206Z,17.83
2018-04-30T19:14:23.749Z,17.81
2018-04-30T19:16:51.266Z,17.74
2018-04-30T19:19:18.811Z,17.72
2018-04-30T19:21:46.371Z,17.68
2018-04-30T19:24:13.925Z,17.59
2018-04-30T19:26:41.469Z,17.58
2018-04-30T19:29:09.013Z,17.53
2018-04-30T19:31:36.533Z,17.48
2018-04-30T19:34:04.073Z,17.44
2018-04-30T19:36:31.635Z,17.41
2018-04-30T19:38:59.299Z,17.38
2018-04-30T19:41:26.834Z,17.32
2018-04-30T19:43:54.352Z,17.28
2018-04-30T19:46:21.882Z,17.23
2018-04-30T19:48:49.392Z,17.16
2018-04-30T19:51:16.906Z,17.12
2018-04-30T19:53:44.583Z,17.10
2018-04-30T19:56:12.114Z,17.03
2018-04-30T19:58:39.664Z,17.04
2018-04-30T20:01:07.206Z,16.89
2018-04-30T20:03:34.856Z,16.91
2018-04-30T20:06:02.400Z,16.87
2018-04-30T20:08:29.925Z,16.88
2018-04-30T20:10:57.451Z,16.83
2018-04-30T20:13:24.976Z,16.80
2018-04-30T20:15:52.525Z,16.81
2018-04-30T20:18:20.072Z,16.72
2018-04-30T20:20:47.600Z,16.73
2018-04-30T21:45:12.104Z,15.92
2018-04-30T21:47:39.624Z,15.84
2018-04-30T21:50:07.156Z,15.86
2018-04-30T21:52:34.690Z,15.81
2018-04-30T21:55:02.204Z,15.79
2018-04-30T21:57:29.731Z,15.81
2018-04-30T21:59:57.261Z,15.75
2018-04-30T22:02:24.780Z,15.74
2018-04-30T22:04:52.311Z,15.70
2018-04-30T22:07:19.851Z,15.71
2018-04-30T22:09:47.388Z,15.69
2018-04-30T22:12:14.900Z,15.68
2018-04-30T22:14:42.415Z,15.64
2018-04-30T22:17:09.931Z,15.62
2018-04-30T22:19:37.450Z,15.56
2018-04-30T22:22:04.958Z,15.54
2018-04-30T22:24:32.589Z,15.47
2018-04-30T22:27:00.114Z,15.47
2018-04-30T22:29:27.687Z,15.45
2018-04-30T22:31:55.200Z,15.41
2018-04-30T22:34:22.721Z,15.34
2018-04-30T22:36:50.260Z,15.32
2018-04-30T22:39:17.771Z,15.26
2018-04-30T22:41:45.298Z,15.22
2018-04-30T22:44:12.829Z,15.17
2018-04-30T22:46:40.343Z,15.09
2018-04-30T22:49:07.865Z,15.09
2018-04-30T22:51:35.376Z,15.07
2018-04-30T22:54:02.896Z,15.04
2018-04-30T22:56:30.426Z,14.99
2018-04-30T22:58:57.941Z,14.91
2018-04-30T23:01:25.474Z,14.90
2018-04-30T23:03:52.988Z,14.80
2018-04-30T23:06:20.507Z,14.82
2018-04-30T23:08:48.020Z,14.81
2018-04-30T23:11:15.537Z,14.77
2018-04-30T23:13:43.057Z,14.75
2018-04-30T23:16:10.569Z,14.60
2018-04-30T23:18:38.092Z,14.58
2018-04-30T23:21:05.612Z,14.54
2018-04-30T23:23:33.137Z,14.52
2018-04-30T23:26:00.652Z,14.44
2018-04-30T23:28:28.165Z,14.47
2018-04-30T23:30:55.684Z,14.50
2018-04-30T23:33:23.204Z,14.51
2018-04-30T23:35:50.728Z,14.39
2018-04-30T23:38:18.261Z,14.47
2018-04-30T23:40:45.791Z,14.37
2018-04-30T23:43:13.304Z,14.40
2018-04-30T23:45:40.833Z,14.36
2018-04-30T23:48:08.353Z,14.38
2018-04-30T23:50:35.880Z,14.32
2018-04-30T23:53:03.420Z,14.38
2018-04-30T23:55:30.944Z,14.42
2018-04-30T23:57:58.462Z,14.34
